sensor_id;sensor_type;location;lat;lon;timestamp;pressure;altitude;pressure_sealevel;temperature;humidity
49813;BME280;35706;52.100;5.056;2024-02-14T00:00:33;101267.59;;;8.66;100.00
49813;BME280;35706;52.100;5.056;2024-02-14T00:01:33;101250.44;;;8.73;100.00
49813;BME280;35706;52.100;5.056;2024-02-14T00:02:33;101246.75;;;8.76;100.00
49813;BME280;35706;52.100;5.056;2024-02-14T00:03:34;101252.00;;;8.76;100.00
49813;BME280;35706;52.100;5.056;2024-02-14T00:04:34;101258.69;;;8.80;100.00
49813;BME280;35706;52.100;5.056;2024-02-14T00:05:35;101250.09;;;8.78;100.00
49813;BME280;35706;52.100;5.056;2024-02-14T00:06:36;101247.22;;;8.70;100.00
49813;BME280;35706;52.100;5.056;2024-02-14T00:07:37;101252.13;;;8.74;100.00
49813;BME280;35706;52.100;5.056;2024-02-14T00:08:38;101238.06;;;8.75;100.00
49813;BME280;35706;52.100;5.056;2024-02-14T00:09:38;101251.50;;;8.71;100.00
49813;BME280;35706;52.100;5.056;2024-02-14T00:10:39;101248.53;;;8.75;100.00
49813;BME280;35706;52.100;5.056;2024-02-14T00:11:39;101241.13;;;8.69;100.00
49813;BME280;35706;52.100;5.056;2024-02-14T00:12:40;101254.66;;;8.87;100.00
49813;BME280;35706;52.100;5.056;2024-02-14T00:13:40;101255.25;;;8.91;100.00
49813;BME280;35706;52.100;5.056;2024-02-14T00:14:40;101251.44;;;8.84;100.00
49813;BME280;35706;52.100;5.056;2024-02-14T00:15:41;101246.81;;;8.87;100.00
49813;BME280;35706;52.100;5.056;2024-02-14T00:16:42;101237.84;;;8.79;100.00
49813;BME280;35706;52.100;5.056;2024-02-14T00:17:42;101247.53;;;8.89;100.00
49813;BME280;35706;52.100;5.056;2024-02-14T00:18:43;101241.78;;;8.84;100.00
49813;BME280;35706;52.100;5.056;2024-02-14T00:19:43;101253.44;;;8.80;100.00
49813;BME280;35706;52.100;5.056;2024-02-14T00:20:43;101250.25;;;8.88;100.00
49813;BME280;35706;52.100;5.056;2024-02-14T00:21:44;101268.59;;;8.88;100.00
49813;BME280;35706;52.100;5.056;2024-02-14T00:22:44;101251.31;;;8.85;100.00
49813;BME280;35706;52.100;5.056;2024-02-14T00:23:44;101244.56;;;8.94;100.00
49813;BME280;35706;52.100;5.056;2024-02-14T00:24:45;101243.56;;;8.84;100.00
49813;BME280;35706;52.100;5.056;2024-02-14T00:25:45;101234.88;;;8.83;100.00
49813;BME280;35706;52.100;5.056;2024-02-14T00:26:45;101233.00;;;8.96;100.00
49813;BME280;35706;52.100;5.056;2024-02-14T00:27:46;101237.75;;;8.91;100.00
49813;BME280;35706;52.100;5.056;2024-02-14T00:28:46;101226.56;;;8.89;100.00
49813;BME280;35706;52.100;5.056;2024-02-14T00:29:46;101230.25;;;8.98;100.00
49813;BME280;35706;52.100;5.056;2024-02-14T00:30:48;101223.47;;;8.95;100.00
49813;BME280;35706;52.100;5.056;2024-02-14T00:31:48;101228.13;;;9.03;100.00
49813;BME280;35706;52.100;5.056;2024-02-14T00:32:50;101224.91;;;9.00;100.00
49813;BME280;35706;52.100;5.056;2024-02-14T00:33:50;101233.25;;;9.05;100.00
49813;BME280;35706;52.100;5.056;2024-02-14T00:34:51;101233.97;;;9.07;100.00
49813;BME280;35706;52.100;5.056;2024-02-14T00:35:51;101228.84;;;9.05;100.00
49813;BME280;35706;52.100;5.056;2024-02-14T00:36:52;101229.81;;;9.04;100.00
49813;BME280;35706;52.100;5.056;2024-02-14T00:37:52;101234.31;;;9.02;100.00
49813;BME280;35706;52.100;5.056;2024-02-14T00:38:52;101240.88;;;9.08;100.00
49813;BME280;35706;52.100;5.056;2024-02-14T00:39:52;101234.44;;;9.12;100.00
49813;BME280;35706;52.100;5.056;2024-02-14T00:40:54;101215.88;;;9.15;100.00
49813;BME280;35706;52.100;5.056;2024-02-14T00:41:54;101230.88;;;9.13;100.00
49813;BME280;35706;52.100;5.056;2024-02-14T00:42:55;101227.28;;;9.14;100.00
49813;BME280;35706;52.100;5.056;2024-02-14T00:43:56;101229.69;;;9.28;100.00
49813;BME280;35706;52.100;5.056;2024-02-14T00:44:56;101225.38;;;9.16;100.00
49813;BME280;35706;52.100;5.056;2024-02-14T00:45:56;101227.66;;;9.21;100.00
49813;BME280;35706;52.100;5.056;2024-02-14T00:46:57;101221.94;;;9.27;100.00
49813;BME280;35706;52.100;5.056;2024-02-14T00:48:02;101235.53;;;9.21;100.00
49813;BME280;35706;52.100;5.056;2024-02-14T00:49:03;101240.19;;;9.17;100.00
49813;BME280;35706;52.100;5.056;2024-02-14T00:50:04;101220.28;;;9.26;100.00
49813;BME280;35706;52.100;5.056;2024-02-14T00:51:05;101225.28;;;9.29;100.00
49813;BME280;35706;52.100;5.056;2024-02-14T00:52:05;101242.81;;;9.17;100.00
49813;BME280;35706;52.100;5.056;2024-02-14T00:53:06;101237.56;;;9.28;100.00
49813;BME280;35706;52.100;5.056;2024-02-14T00:54:07;101229.09;;;9.25;100.00
49813;BME280;35706;52.100;5.056;2024-02-14T00:55:08;101224.44;;;9.28;100.00
49813;BME280;35706;52.100;5.056;2024-02-14T00:56:08;101230.31;;;9.32;100.00
49813;BME280;35706;52.100;5.056;2024-02-14T00:57:09;101226.34;;;9.26;100.00
49813;BME280;35706;52.100;5.056;2024-02-14T00:58:09;101231.59;;;9.37;100.00
49813;BME280;35706;52.100;5.056;2024-02-14T00:59:10;101242.47;;;9.33;100.00
49813;BME280;35706;52.100;5.056;2024-02-14T01:00:10;101226.97;;;9.30;100.00
49813;BME280;35706;52.100;5.056;2024-02-14T01:01:11;101219.31;;;9.27;100.00
49813;BME280;35706;52.100;5.056;2024-02-14T01:02:12;101231.50;;;9.28;100.00
49813;BME280;35706;52.100;5.056;2024-02-14T01:03:12;101233.16;;;9.29;100.00
49813;BME280;35706;52.100;5.056;2024-02-14T01:04:15;101234.72;;;9.31;100.00
49813;BME280;35706;52.100;5.056;2024-02-14T01:05:15;101219.69;;;9.33;100.00
49813;BME280;35706;52.100;5.056;2024-02-14T01:06:15;101237.22;;;9.33;100.00
49813;BME280;35706;52.100;5.056;2024-02-14T01:07:16;101239.00;;;9.32;100.00
49813;BME280;35706;52.100;5.056;2024-02-14T01:08:16;101252.13;;;9.32;100.00
49813;BME280;35706;52.100;5.056;2024-02-14T01:09:18;101239.97;;;9.31;100.00
49813;BME280;35706;52.100;5.056;2024-02-14T01:10:18;101232.56;;;9.36;100.00
49813;BME280;35706;52.100;5.056;2024-02-14T01:11:19;101235.81;;;9.40;100.00
49813;BME280;35706;52.100;5.056;2024-02-14T01:12:19;101237.56;;;9.40;100.00
49813;BME280;35706;52.100;5.056;2024-02-14T01:13:19;101239.72;;;9.34;100.00
49813;BME280;35706;52.100;5.056;2024-02-14T01:14:20;101242.81;;;9.40;100.00
49813;BME280;35706;52.100;5.056;2024-02-14T01:15:21;101241.28;;;9.37;100.00
49813;BME280;35706;52.100;5.056;2024-02-14T01:16:24;101238.06;;;9.33;100.00
49813;BME280;35706;52.100;5.056;2024-02-14T01:17:24;101238.91;;;9.34;100.00
49813;BME280;35706;52.100;5.056;2024-02-14T01:18:25;101238.75;;;9.35;100.00
49813;BME280;35706;52.100;5.056;2024-02-14T01:19:25;101239.13;;;9.31;100.00
49813;BME280;35706;52.100;5.056;2024-02-14T01:20:28;101229.13;;;9.36;100.00
49813;BME280;35706;52.100;5.056;2024-02-14T01:21:28;101235.31;;;9.35;100.00
49813;BME280;35706;52.100;5.056;2024-02-14T01:22:29;101238.19;;;9.32;100.00
49813;BME280;35706;52.100;5.056;2024-02-14T01:23:29;101239.84;;;9.33;100.00
49813;BME280;35706;52.100;5.056;2024-02-14T01:24:29;101239.97;;;9.31;100.00
49813;BME280;35706;52.100;5.056;2024-02-14T01:25:30;101234.22;;;9.26;100.00
49813;BME280;35706;52.100;5.056;2024-02-14T01:26:31;101267.75;;;9.34;100.00
49813;BME280;35706;52.100;5.056;2024-02-14T01:27:32;101243.44;;;9.32;100.00
49813;BME280;35706;52.100;5.056;2024-02-14T01:28:32;101257.63;;;9.29;100.00
49813;BME280;35706;52.100;5.056;2024-02-14T01:29:34;101252.84;;;9.46;100.00
49813;BME280;35706;52.100;5.056;2024-02-14T01:30:34;101246.88;;;9.44;100.00
49813;BME280;35706;52.100;5.056;2024-02-14T01:31:36;101243.41;;;9.43;100.00
49813;BME280;35706;52.100;5.056;2024-02-14T01:32:37;101247.84;;;9.31;100.00
49813;BME280;35706;52.100;5.056;2024-02-14T01:33:37;101249.38;;;9.34;100.00
49813;BME280;35706;52.100;5.056;2024-02-14T01:34:37;101271.69;;;9.40;100.00
49813;BME280;35706;52.100;5.056;2024-02-14T01:35:38;101243.06;;;9.36;100.00
49813;BME280;35706;52.100;5.056;2024-02-14T01:36:38;101248.78;;;9.42;100.00
49813;BME280;35706;52.100;5.056;2024-02-14T01:37:38;101241.06;;;9.40;100.00
49813;BME280;35706;52.100;5.056;2024-02-14T01:38:39;101242.69;;;9.41;100.00
49813;BME280;35706;52.100;5.056;2024-02-14T01:39:39;101241.28;;;9.37;100.00
49813;BME280;35706;52.100;5.056;2024-02-14T01:40:42;101245.09;;;9.44;100.00
49813;BME280;35706;52.100;5.056;2024-02-14T01:41:45;101239.50;;;9.49;100.00
49813;BME280;35706;52.100;5.056;2024-02-14T01:42:48;101268.22;;;9.39;100.00
49813;BME280;35706;52.100;5.056;2024-02-14T01:43:49;101242.94;;;9.49;100.00
49813;BME280;35706;52.100;5.056;2024-02-14T01:44:50;101257.97;;;9.47;100.00
49813;BME280;35706;52.100;5.056;2024-02-14T01:45:50;101242.94;;;9.49;100.00
49813;BME280;35706;52.100;5.056;2024-02-14T01:46:51;101243.56;;;9.53;100.00
49813;BME280;35706;52.100;5.056;2024-02-14T01:47:53;101238.78;;;9.58;100.00
49813;BME280;35706;52.100;5.056;2024-02-14T01:48:53;101254.88;;;9.53;100.00
49813;BME280;35706;52.100;5.056;2024-02-14T01:49:54;101244.25;;;9.44;100.00
49813;BME280;35706;52.100;5.056;2024-02-14T01:50:54;101251.28;;;9.54;100.00
49813;BME280;35706;52.100;5.056;2024-02-14T01:52:00;101251.41;;;9.64;100.00
49813;BME280;35706;52.100;5.056;2024-02-14T01:53:03;101243.06;;;9.59;100.00
49813;BME280;35706;52.100;5.056;2024-02-14T01:54:04;101268.72;;;9.55;100.00
49813;BME280;35706;52.100;5.056;2024-02-14T01:55:06;101249.25;;;9.58;100.00
49813;BME280;35706;52.100;5.056;2024-02-14T01:56:07;101250.25;;;9.57;100.00
49813;BME280;35706;52.100;5.056;2024-02-14T01:57:08;101241.28;;;9.60;100.00
49813;BME280;35706;52.100;5.056;2024-02-14T01:58:10;101239.25;;;9.63;100.00
49813;BME280;35706;52.100;5.056;2024-02-14T01:59:10;101277.91;;;9.61;100.00
49813;BME280;35706;52.100;5.056;2024-02-14T02:00:11;101266.22;;;9.65;100.00
49813;BME280;35706;52.100;5.056;2024-02-14T02:01:18;101270.16;;;9.60;100.00
49813;BME280;35706;52.100;5.056;2024-02-14T02:02:19;101245.44;;;9.73;100.00
49813;BME280;35706;52.100;5.056;2024-02-14T02:03:19;101245.34;;;9.64;100.00
49813;BME280;35706;52.100;5.056;2024-02-14T02:04:20;101255.22;;;9.60;100.00
49813;BME280;35706;52.100;5.056;2024-02-14T02:05:21;101242.47;;;9.55;100.00
49813;BME280;35706;52.100;5.056;2024-02-14T02:06:21;101283.28;;;9.60;100.00
49813;BME280;35706;52.100;5.056;2024-02-14T02:07:22;101240.81;;;9.66;100.00
49813;BME280;35706;52.100;5.056;2024-02-14T02:08:22;101243.78;;;9.61;100.00
49813;BME280;35706;52.100;5.056;2024-02-14T02:09:23;101268.59;;;9.57;100.00
49813;BME280;35706;52.100;5.056;2024-02-14T02:10:23;101240.44;;;9.70;100.00
49813;BME280;35706;52.100;5.056;2024-02-14T02:11:25;101246.16;;;9.64;100.00
49813;BME280;35706;52.100;5.056;2024-02-14T02:12:27;101266.22;;;9.65;100.00
49813;BME280;35706;52.100;5.056;2024-02-14T02:13:27;101241.16;;;9.72;100.00
49813;BME280;35706;52.100;5.056;2024-02-14T02:14:27;101257.38;;;9.66;100.00
49813;BME280;35706;52.100;5.056;2024-02-14T02:15:28;101252.59;;;9.60;100.00
49813;BME280;35706;52.100;5.056;2024-02-14T02:16:29;101244.72;;;9.60;100.00
49813;BME280;35706;52.100;5.056;2024-02-14T02:17:29;101260.72;;;9.57;100.00
49813;BME280;35706;52.100;5.056;2024-02-14T02:18:30;101260.03;;;9.55;100.00
49813;BME280;35706;52.100;5.056;2024-02-14T02:19:31;101256.31;;;9.57;100.00
49813;BME280;35706;52.100;5.056;2024-02-14T02:20:33;101258.44;;;9.52;100.00
49813;BME280;35706;52.100;5.056;2024-02-14T02:21:33;101250.94;;;9.59;100.00
49813;BME280;35706;52.100;5.056;2024-02-14T02:22:35;101258.56;;;9.62;100.00
49813;BME280;35706;52.100;5.056;2024-02-14T02:23:35;101252.16;;;9.55;100.00
49813;BME280;35706;52.100;5.056;2024-02-14T02:24:36;101271.44;;;9.54;100.00
49813;BME280;35706;52.100;5.056;2024-02-14T02:25:36;101274.19;;;9.52;100.00
49813;BME280;35706;52.100;5.056;2024-02-14T02:26:36;101257.13;;;9.58;100.00
49813;BME280;35706;52.100;5.056;2024-02-14T02:27:36;101265.97;;;9.57;100.00
49813;BME280;35706;52.100;5.056;2024-02-14T02:28:37;101267.41;;;9.61;100.00
49813;BME280;35706;52.100;5.056;2024-02-14T02:29:39;101264.28;;;9.56;100.00
49813;BME280;35706;52.100;5.056;2024-02-14T02:30:40;101270.25;;;9.58;100.00
49813;BME280;35706;52.100;5.056;2024-02-14T02:31:40;101249.16;;;9.60;100.00
49813;BME280;35706;52.100;5.056;2024-02-14T02:32:42;101262.88;;;9.63;100.00
49813;BME280;35706;52.100;5.056;2024-02-14T02:33:42;101258.81;;;9.59;100.00
49813;BME280;35706;52.100;5.056;2024-02-14T02:34:43;101275.16;;;9.63;100.00
49813;BME280;35706;52.100;5.056;2024-02-14T02:35:45;101278.28;;;9.68;100.00
49813;BME280;35706;52.100;5.056;2024-02-14T02:36:45;101261.81;;;9.66;100.00
49813;BME280;35706;52.100;5.056;2024-02-14T02:37:46;101257.63;;;9.63;100.00
49813;BME280;35706;52.100;5.056;2024-02-14T02:38:48;101275.63;;;9.56;100.00
49813;BME280;35706;52.100;5.056;2024-02-14T02:39:48;101280.66;;;9.60;100.00
49813;BME280;35706;52.100;5.056;2024-02-14T02:40:49;101272.41;;;9.64;100.00
49813;BME280;35706;52.100;5.056;2024-02-14T02:41:49;101258.34;;;9.65;100.00
49813;BME280;35706;52.100;5.056;2024-02-14T02:42:50;101278.25;;;9.56;100.00
49813;BME280;35706;52.100;5.056;2024-02-14T02:43:53;101267.63;;;9.58;100.00
49813;BME280;35706;52.100;5.056;2024-02-14T02:44:54;101266.19;;;9.54;100.00
49813;BME280;35706;52.100;5.056;2024-02-14T02:45:54;101270.97;;;9.60;100.00
49813;BME280;35706;52.100;5.056;2024-02-14T02:46:55;101278.84;;;9.60;100.00
49813;BME280;35706;52.100;5.056;2024-02-14T02:47:55;101289.47;;;9.58;100.00
49813;BME280;35706;52.100;5.056;2024-02-14T02:48:56;101276.00;;;9.63;100.00
49813;BME280;35706;52.100;5.056;2024-02-14T02:49:57;101271.69;;;9.73;100.00
49813;BME280;35706;52.100;5.056;2024-02-14T02:51:03;101270.63;;;9.65;100.00
49813;BME280;35706;52.100;5.056;2024-02-14T02:52:04;101291.16;;;9.60;100.00
49813;BME280;35706;52.100;5.056;2024-02-14T02:53:04;101274.94;;;9.66;100.00
49813;BME280;35706;52.100;5.056;2024-02-14T02:54:05;101278.84;;;9.60;100.00
49813;BME280;35706;52.100;5.056;2024-02-14T02:55:05;101276.34;;;9.70;100.00
49813;BME280;35706;52.100;5.056;2024-02-14T02:56:06;101279.69;;;9.61;100.00
49813;BME280;35706;52.100;5.056;2024-02-14T02:57:10;101293.03;;;9.69;100.00
49813;BME280;35706;52.100;5.056;2024-02-14T02:58:11;101281.47;;;9.60;100.00
49813;BME280;35706;52.100;5.056;2024-02-14T02:59:11;101277.91;;;9.61;100.00
49813;BME280;35706;52.100;5.056;2024-02-14T03:00:13;101282.19;;;9.62;100.00
49813;BME280;35706;52.100;5.056;2024-02-14T03:01:14;101278.00;;;9.71;100.00
49813;BME280;35706;52.100;5.056;2024-02-14T03:02:15;101296.63;;;9.68;100.00
49813;BME280;35706;52.100;5.056;2024-02-14T03:03:15;101270.25;;;9.69;100.00
49813;BME280;35706;52.100;5.056;2024-02-14T03:04:16;101279.91;;;9.69;100.00
49813;BME280;35706;52.100;5.056;2024-02-14T03:05:17;101275.75;;;9.66;100.00
49813;BME280;35706;52.100;5.056;2024-02-14T03:06:23;101277.66;;;9.64;100.00
49813;BME280;35706;52.100;5.056;2024-02-14T03:07:23;101312.03;;;9.72;100.00
49813;BME280;35706;52.100;5.056;2024-02-14T03:08:23;101278.72;;;9.73;100.00
49813;BME280;35706;52.100;5.056;2024-02-14T03:09:25;101289.84;;;9.76;100.00
49813;BME280;35706;52.100;5.056;2024-02-14T03:10:27;101282.56;;;9.80;100.00
49813;BME280;35706;52.100;5.056;2024-02-14T03:11:29;101315.38;;;9.74;100.00
49813;BME280;35706;52.100;5.056;2024-02-14T03:12:29;101292.22;;;9.79;100.00
49813;BME280;35706;52.100;5.056;2024-02-14T03:13:32;101283.88;;;9.74;100.00
49813;BME280;35706;52.100;5.056;2024-02-14T03:14:32;101270.63;;;9.76;100.00
49813;BME280;35706;52.100;5.056;2024-02-14T03:15:33;101275.50;;;9.81;100.00
49813;BME280;35706;52.100;5.056;2024-02-14T03:16:33;101288.75;;;9.79;100.00
49813;BME280;35706;52.100;5.056;2024-02-14T03:17:34;101285.41;;;9.77;100.00
49813;BME280;35706;52.100;5.056;2024-02-14T03:18:34;101274.31;;;9.85;100.00
49813;BME280;35706;52.100;5.056;2024-02-14T03:19:34;101288.66;;;9.81;100.00
49813;BME280;35706;52.100;5.056;2024-02-14T03:20:38;101302.50;;;9.83;100.00
49813;BME280;35706;52.100;5.056;2024-02-14T03:21:38;101275.63;;;9.79;100.00
49813;BME280;35706;52.100;5.056;2024-02-14T03:22:39;101287.09;;;9.89;100.00
49813;BME280;35706;52.100;5.056;2024-02-14T03:23:44;101276.22;;;9.94;100.00
49813;BME280;35706;52.100;5.056;2024-02-14T03:24:46;101284.09;;;9.83;100.00
49813;BME280;35706;52.100;5.056;2024-02-14T03:25:47;101272.41;;;9.87;100.00
49813;BME280;35706;52.100;5.056;2024-02-14T03:26:48;101279.56;;;9.96;100.00
49813;BME280;35706;52.100;5.056;2024-02-14T03:27:51;101289.81;;;9.88;100.00
49813;BME280;35706;52.100;5.056;2024-02-14T03:28:53;101281.84;;;9.89;100.00
49813;BME280;35706;52.100;5.056;2024-02-14T03:29:54;101287.53;;;9.94;100.00
49813;BME280;35706;52.100;5.056;2024-02-14T03:30:56;101282.91;;;9.87;100.00
49813;BME280;35706;52.100;5.056;2024-02-14T03:31:57;101290.44;;;9.91;100.00
49813;BME280;35706;52.100;5.056;2024-02-14T03:32:59;101311.66;;;9.88;100.00
49813;BME280;35706;52.100;5.056;2024-02-14T03:34:00;101282.19;;;9.85;100.00
49813;BME280;35706;52.100;5.056;2024-02-14T03:35:00;101290.06;;;9.85;100.00
49813;BME280;35706;52.100;5.056;2024-02-14T03:36:00;101289.25;;;9.84;100.00
49813;BME280;35706;52.100;5.056;2024-02-14T03:37:01;101280.16;;;9.88;100.00
49813;BME280;35706;52.100;5.056;2024-02-14T03:38:07;101291.50;;;9.89;100.00
49813;BME280;35706;52.100;5.056;2024-02-14T03:39:10;101295.78;;;9.90;100.00
49813;BME280;35706;52.100;5.056;2024-02-14T03:40:11;101293.28;;;9.88;100.00
49813;BME280;35706;52.100;5.056;2024-02-14T03:41:12;101298.66;;;9.87;100.00
49813;BME280;35706;52.100;5.056;2024-02-14T03:42:15;101293.16;;;9.90;100.00
49813;BME280;35706;52.100;5.056;2024-02-14T03:43:16;101309.03;;;9.88;100.00
49813;BME280;35706;52.100;5.056;2024-02-14T03:44:17;101288.03;;;9.88;100.00
49813;BME280;35706;52.100;5.056;2024-02-14T03:45:17;101285.16;;;9.91;100.00
49813;BME280;35706;52.100;5.056;2024-02-14T03:46:17;101295.41;;;9.94;100.00
49813;BME280;35706;52.100;5.056;2024-02-14T03:47:21;101295.41;;;9.94;100.00
49813;BME280;35706;52.100;5.056;2024-02-14T03:48:21;101302.94;;;9.88;100.00
49813;BME280;35706;52.100;5.056;2024-02-14T03:49:22;101291.84;;;9.95;100.00
49813;BME280;35706;52.100;5.056;2024-02-14T03:50:22;101286.00;;;9.92;100.00
49813;BME280;35706;52.100;5.056;2024-02-14T03:51:23;101299.25;;;9.90;100.00
49813;BME280;35706;52.100;5.056;2024-02-14T03:52:24;101296.03;;;9.98;100.00
49813;BME280;35706;52.100;5.056;2024-02-14T03:53:24;101285.63;;;9.96;100.00
49813;BME280;35706;52.100;5.056;2024-02-14T03:54:25;101300.81;;;9.93;100.00
49813;BME280;35706;52.100;5.056;2024-02-14T03:55:25;101296.75;;;10.00;100.00
49813;BME280;35706;52.100;5.056;2024-02-14T03:56:25;101309.53;;;9.93;100.00
49813;BME280;35706;52.100;5.056;2024-02-14T03:57:26;101305.59;;;9.99;100.00
49813;BME280;35706;52.100;5.056;2024-02-14T03:58:29;101294.13;;;10.00;100.00
49813;BME280;35706;52.100;5.056;2024-02-14T03:59:30;101296.03;;;9.98;100.00
49813;BME280;35706;52.100;5.056;2024-02-14T04:00:30;101307.25;;;10.00;100.00
49813;BME280;35706;52.100;5.056;2024-02-14T04:01:31;101290.50;;;10.01;100.00
49813;BME280;35706;52.100;5.056;2024-02-14T04:02:31;101299.25;;;10.02;100.00
49813;BME280;35706;52.100;5.056;2024-02-14T04:03:32;101301.72;;;10.03;100.00
49813;BME280;35706;52.100;5.056;2024-02-14T04:04:32;101302.69;;;10.02;100.00
49813;BME280;35706;52.100;5.056;2024-02-14T04:05:34;101303.66;;;10.01;100.00
49813;BME280;35706;52.100;5.056;2024-02-14T04:06:34;101294.72;;;10.04;100.00
49813;BME280;35706;52.100;5.056;2024-02-14T04:07:35;101305.22;;;10.04;100.00
49813;BME280;35706;52.100;5.056;2024-02-14T04:08:36;101292.47;;;9.99;100.00
49813;BME280;35706;52.100;5.056;2024-02-14T04:09:36;101306.03;;;10.04;100.00
49813;BME280;35706;52.100;5.056;2024-02-14T04:10:37;101316.44;;;10.06;100.00
49813;BME280;35706;52.100;5.056;2024-02-14T04:11:37;101306.03;;;10.04;100.00
49813;BME280;35706;52.100;5.056;2024-02-14T04:12:38;101318.09;;;10.07;100.00
49813;BME280;35706;52.100;5.056;2024-02-14T04:13:38;101308.56;;;10.06;100.00
49813;BME280;35706;52.100;5.056;2024-02-14T04:14:38;101305.78;;;10.07;100.00
49813;BME280;35706;52.100;5.056;2024-02-14T04:15:39;101316.28;;;10.07;100.00
49813;BME280;35706;52.100;5.056;2024-02-14T04:16:39;101315.97;;;10.12;100.00
49813;BME280;35706;52.100;5.056;2024-02-14T04:17:40;101320.84;;;10.05;100.00
49813;BME280;35706;52.100;5.056;2024-02-14T04:18:42;101314.88;;;10.14;100.00
49813;BME280;35706;52.100;5.056;2024-02-14T04:19:42;101315.69;;;10.15;100.00
49813;BME280;35706;52.100;5.056;2024-02-14T04:20:43;101323.84;;;10.12;100.00
49813;BME280;35706;52.100;5.056;2024-02-14T04:21:44;101334.91;;;10.15;100.00
49813;BME280;35706;52.100;5.056;2024-02-14T04:22:44;101327.66;;;10.08;100.00
49813;BME280;35706;52.100;5.056;2024-02-14T04:29:34;101323.47;;;10.05;100.00
49813;BME280;35706;52.100;5.056;2024-02-14T04:30:35;101331.72;;;10.12;100.00
49813;BME280;35706;52.100;5.056;2024-02-14T04:31:36;101325.50;;;10.02;100.00
49813;BME280;35706;52.100;5.056;2024-02-14T04:32:37;101329.06;;;10.01;100.00
49813;BME280;35706;52.100;5.056;2024-02-14T04:33:37;101335.41;;;9.98;100.00
49813;BME280;35706;52.100;5.056;2024-02-14T04:34:37;101322.75;;;10.14;100.00
49813;BME280;35706;52.100;5.056;2024-02-14T04:35:39;101333.97;;;10.05;100.00
49813;BME280;35706;52.100;5.056;2024-02-14T04:36:39;101332.31;;;10.04;100.00
49813;BME280;35706;52.100;5.056;2024-02-14T04:37:40;101337.78;;;10.12;100.00
49813;BME280;35706;52.100;5.056;2024-02-14T04:38:43;101327.66;;;10.08;100.00
49813;BME280;35706;52.100;5.056;2024-02-14T04:39:44;101336.38;;;10.08;100.00
49813;BME280;35706;52.100;5.056;2024-02-14T04:40:44;101334.34;;;10.12;100.00
49813;BME280;35706;52.100;5.056;2024-02-14T04:41:44;101330.84;;;10.11;100.00
49813;BME280;35706;52.100;5.056;2024-02-14T04:42:46;101342.56;;;10.07;100.00
49813;BME280;35706;52.100;5.056;2024-02-14T04:43:46;101332.78;;;10.21;100.00
49813;BME280;35706;52.100;5.056;2024-02-14T04:44:47;101330.16;;;10.21;100.00
49813;BME280;35706;52.100;5.056;2024-02-14T04:45:47;101340.16;;;10.15;100.00
49813;BME280;35706;52.100;5.056;2024-02-14T04:46:48;101334.34;;;10.12;100.00
49813;BME280;35706;52.100;5.056;2024-02-14T04:47:48;101331.47;;;10.15;100.00
49813;BME280;35706;52.100;5.056;2024-02-14T04:48:49;101339.59;;;10.12;100.00
49813;BME280;35706;52.100;5.056;2024-02-14T04:49:49;101342.34;;;10.10;100.00
49813;BME280;35706;52.100;5.056;2024-02-14T04:50:51;101331.72;;;10.12;100.00
49813;BME280;35706;52.100;5.056;2024-02-14T04:51:52;101332.63;;;10.22;100.00
49813;BME280;35706;52.100;5.056;2024-02-14T04:52:53;101341.84;;;10.16;100.00
49813;BME280;35706;52.100;5.056;2024-02-14T04:53:53;101337.19;;;10.20;100.00
49813;BME280;35706;52.100;5.056;2024-02-14T04:54:54;101334.09;;;10.15;100.00
49813;BME280;35706;52.100;5.056;2024-02-14T04:55:54;101336.59;;;10.16;100.00
49813;BME280;35706;52.100;5.056;2024-02-14T04:56:55;101336.81;;;10.13;100.00
49813;BME280;35706;52.100;5.056;2024-02-14T04:57:55;101340.16;;;10.15;100.00
49813;BME280;35706;52.100;5.056;2024-02-14T04:58:55;101345.19;;;10.18;100.00
49813;BME280;35706;52.100;5.056;2024-02-14T04:59:55;101340.66;;;10.21;100.00
49813;BME280;35706;52.100;5.056;2024-02-14T05:00:56;101341.59;;;10.19;100.00
49813;BME280;35706;52.100;5.056;2024-02-14T05:01:56;101337.66;;;10.25;100.00
49813;BME280;35706;52.100;5.056;2024-02-14T05:02:57;101338.84;;;10.21;100.00
49813;BME280;35706;52.100;5.056;2024-02-14T05:03:57;101360.25;;;10.16;100.00
49813;BME280;35706;52.100;5.056;2024-02-14T05:04:58;101342.19;;;10.23;100.00
49813;BME280;35706;52.100;5.056;2024-02-14T05:05:58;101341.22;;;10.24;100.00
49813;BME280;35706;52.100;5.056;2024-02-14T05:07:02;101346.84;;;10.19;100.00
49813;BME280;35706;52.100;5.056;2024-02-14T05:08:03;101347.19;;;10.26;100.00
49813;BME280;35706;52.100;5.056;2024-02-14T05:09:04;101341.38;;;10.23;100.00
49813;BME280;35706;52.100;5.056;2024-02-14T05:10:05;101343.28;;;10.21;100.00
49813;BME280;35706;52.100;5.056;2024-02-14T05:11:06;101345.19;;;10.18;100.00
49813;BME280;35706;52.100;5.056;2024-02-14T05:12:07;101346.63;;;10.23;100.00
49813;BME280;35706;52.100;5.056;2024-02-14T05:13:10;101343.78;;;10.14;100.00
49813;BME280;35706;52.100;5.056;2024-02-14T05:14:10;101351.88;;;10.23;100.00
49813;BME280;35706;52.100;5.056;2024-02-14T05:15:11;101362.03;;;10.27;100.00
49813;BME280;35706;52.100;5.056;2024-02-14T05:16:12;101356.41;;;10.21;100.00
49813;BME280;35706;52.100;5.056;2024-02-14T05:17:13;101354.38;;;10.24;100.00
49813;BME280;35706;52.100;5.056;2024-02-14T05:18:14;101355.56;;;10.20;100.00
49813;BME280;35706;52.100;5.056;2024-02-14T05:19:16;101358.56;;;10.15;100.00
49813;BME280;35706;52.100;5.056;2024-02-14T05:20:16;101371.59;;;10.17;100.00
49813;BME280;35706;52.100;5.056;2024-02-14T05:21:20;101358.69;;;10.25;100.00
49813;BME280;35706;52.100;5.056;2024-02-14T05:22:20;101359.88;;;10.21;100.00
49813;BME280;35706;52.100;5.056;2024-02-14T05:23:20;101366.06;;;10.20;100.00